sensor_id;sensor_type;location;lat;lon;timestamp;P1;durP1;ratioP1;P2;durP2;ratioP2
47966;SDS011;33733;52.456;13.620;2023-07-20T00:02:17;3.53;;;1.45;;
47966;SDS011;33733;52.456;13.620;2023-07-20T00:04:44;4.40;;;1.67;;
47966;SDS011;33733;52.456;13.620;2023-07-20T00:07:11;3.25;;;1.38;;
47966;SDS011;33733;52.456;13.620;2023-07-20T00:09:38;5.35;;;2.22;;
47966;SDS011;33733;52.456;13.620;2023-07-20T00:12:04;4.60;;;1.77;;
47966;SDS011;33733;52.456;13.620;2023-07-20T00:14:31;3.40;;;1.30;;
47966;SDS011;33733;52.456;13.620;2023-07-20T00:16:58;4.43;;;1.50;;
47966;SDS011;33733;52.456;13.620;2023-07-20T00:19:26;3.28;;;1.27;;
47966;SDS011;33733;52.456;13.620;2023-07-20T00:21:53;3.55;;;1.83;;
47966;SDS011;33733;52.456;13.620;2023-07-20T00:24:21;3.40;;;1.48;;
47966;SDS011;33733;52.456;13.620;2023-07-20T00:26:48;2.90;;;0.63;;
47966;SDS011;33733;52.456;13.620;2023-07-20T00:29:15;4.10;;;1.40;;
47966;SDS011;33733;52.456;13.620;2023-07-20T00:31:42;4.20;;;1.83;;
47966;SDS011;33733;52.456;13.620;2023-07-20T00:34:10;3.78;;;1.95;;
47966;SDS011;33733;52.456;13.620;2023-07-20T00:36:37;3.65;;;1.30;;
47966;SDS011;33733;52.456;13.620;2023-07-20T00:39:04;5.68;;;2.20;;
47966;SDS011;33733;52.456;13.620;2023-07-20T00:41:31;4.55;;;1.60;;
47966;SDS011;33733;52.456;13.620;2023-07-20T00:43:59;3.65;;;1.80;;
47966;SDS011;33733;52.456;13.620;2023-07-20T00:46:26;5.05;;;0.90;;
47966;SDS011;33733;52.456;13.620;2023-07-20T00:48:53;4.13;;;1.88;;
47966;SDS011;33733;52.456;13.620;2023-07-20T00:51:21;3.95;;;1.88;;
47966;SDS011;33733;52.456;13.620;2023-07-20T00:53:48;3.33;;;1.08;;
47966;SDS011;33733;52.456;13.620;2023-07-20T00:56:15;3.35;;;0.85;;
47966;SDS011;33733;52.456;13.620;2023-07-20T00:58:42;2.95;;;0.75;;
47966;SDS011;33733;52.456;13.620;2023-07-20T01:01:09;2.88;;;0.82;;
47966;SDS011;33733;52.456;13.620;2023-07-20T01:03:36;5.63;;;1.92;;
47966;SDS011;33733;52.456;13.620;2023-07-20T01:11:38;5.28;;;1.88;;
47966;SDS011;33733;52.456;13.620;2023-07-20T01:14:09;3.95;;;1.17;;
47966;SDS011;33733;52.456;13.620;2023-07-20T01:16:38;3.60;;;1.60;;
47966;SDS011;33733;52.456;13.620;2023-07-20T01:19:05;4.32;;;1.73;;
47966;SDS011;33733;52.456;13.620;2023-07-20T01:21:34;7.40;;;2.58;;
47966;SDS011;33733;52.456;13.620;2023-07-20T01:32:30;5.28;;;2.25;;
47966;SDS011;33733;52.456;13.620;2023-07-20T01:34:57;3.80;;;1.50;;
47966;SDS011;33733;52.456;13.620;2023-07-20T01:37:25;4.03;;;1.52;;
47966;SDS011;33733;52.456;13.620;2023-07-20T01:39:54;3.20;;;1.25;;
47966;SDS011;33733;52.456;13.620;2023-07-20T01:42:22;5.43;;;1.30;;
47966;SDS011;33733;52.456;13.620;2023-07-20T01:44:52;5.53;;;2.55;;
47966;SDS011;33733;52.456;13.620;2023-07-20T01:47:22;3.10;;;1.00;;
47966;SDS011;33733;52.456;13.620;2023-07-20T01:49:49;4.03;;;2.17;;
47966;SDS011;33733;52.456;13.620;2023-07-20T01:52:16;4.43;;;2.03;;
47966;SDS011;33733;52.456;13.620;2023-07-20T01:54:42;4.82;;;2.58;;
47966;SDS011;33733;52.456;13.620;2023-07-20T01:57:09;4.15;;;2.10;;
47966;SDS011;33733;52.456;13.620;2023-07-20T01:59:36;4.75;;;2.22;;
47966;SDS011;33733;52.456;13.620;2023-07-20T02:02:03;4.40;;;1.98;;
47966;SDS011;33733;52.456;13.620;2023-07-20T02:04:29;3.35;;;1.65;;
47966;SDS011;33733;52.456;13.620;2023-07-20T02:06:57;4.20;;;1.88;;
47966;SDS011;33733;52.456;13.620;2023-07-20T02:09:24;3.50;;;1.80;;
47966;SDS011;33733;52.456;13.620;2023-07-20T02:11:50;3.78;;;1.73;;
47966;SDS011;33733;52.456;13.620;2023-07-20T02:14:19;3.28;;;1.10;;
47966;SDS011;33733;52.456;13.620;2023-07-20T02:16:46;4.15;;;2.15;;
47966;SDS011;33733;52.456;13.620;2023-07-20T02:19:14;4.15;;;1.80;;
47966;SDS011;33733;52.456;13.620;2023-07-20T02:21:40;3.92;;;1.80;;
47966;SDS011;33733;52.456;13.620;2023-07-20T02:24:10;4.80;;;2.22;;
47966;SDS011;33733;52.456;13.620;2023-07-20T02:26:39;7.18;;;1.35;;
47966;SDS011;33733;52.456;13.620;2023-07-20T02:29:06;4.68;;;1.83;;
47966;SDS011;33733;52.456;13.620;2023-07-20T02:31:34;3.13;;;1.05;;
47966;SDS011;33733;52.456;13.620;2023-07-20T02:34:04;4.75;;;2.05;;
47966;SDS011;33733;52.456;13.620;2023-07-20T02:36:31;4.80;;;2.10;;
47966;SDS011;33733;52.456;13.620;2023-07-20T02:38:59;3.80;;;1.13;;
47966;SDS011;33733;52.456;13.620;2023-07-20T02:41:26;4.05;;;2.58;;
47966;SDS011;33733;52.456;13.620;2023-07-20T02:43:53;6.68;;;1.13;;
47966;SDS011;33733;52.456;13.620;2023-07-20T02:46:19;2.90;;;0.93;;
47966;SDS011;33733;52.456;13.620;2023-07-20T02:48:47;3.47;;;0.93;;
47966;SDS011;33733;52.456;13.620;2023-07-20T02:51:13;4.20;;;1.95;;
47966;SDS011;33733;52.456;13.620;2023-07-20T02:53:40;4.25;;;2.25;;
47966;SDS011;33733;52.456;13.620;2023-07-20T02:56:07;4.38;;;2.45;;
47966;SDS011;33733;52.456;13.620;2023-07-20T02:58:34;4.10;;;2.03;;
47966;SDS011;33733;52.456;13.620;2023-07-20T03:01:04;4.05;;;1.70;;
47966;SDS011;33733;52.456;13.620;2023-07-20T03:03:31;3.95;;;1.52;;
47966;SDS011;33733;52.456;13.620;2023-07-20T03:05:58;4.28;;;2.03;;
47966;SDS011;33733;52.456;13.620;2023-07-20T03:08:25;3.25;;;1.13;;
47966;SDS011;33733;52.456;13.620;2023-07-20T03:10:52;5.35;;;2.67;;
47966;SDS011;33733;52.456;13.620;2023-07-20T03:13:18;5.25;;;2.25;;
47966;SDS011;33733;52.456;13.620;2023-07-20T03:15:45;5.35;;;2.45;;
47966;SDS011;33733;52.456;13.620;2023-07-20T03:18:11;3.28;;;1.02;;
47966;SDS011;33733;52.456;13.620;2023-07-20T03:20:39;5.45;;;2.25;;
47966;SDS011;33733;52.456;13.620;2023-07-20T03:23:05;4.47;;;2.53;;
47966;SDS011;33733;52.456;13.620;2023-07-20T03:25:32;5.38;;;2.47;;
47966;SDS011;33733;52.456;13.620;2023-07-20T03:27:59;4.38;;;2.30;;
47966;SDS011;33733;52.456;13.620;2023-07-20T03:30:27;4.80;;;2.33;;
47966;SDS011;33733;52.456;13.620;2023-07-20T03:32:53;3.95;;;1.52;;
47966;SDS011;33733;52.456;13.620;2023-07-20T03:35:20;5.70;;;2.97;;
47966;SDS011;33733;52.456;13.620;2023-07-20T03:37:47;5.30;;;2.80;;
47966;SDS011;33733;52.456;13.620;2023-07-20T03:40:14;5.82;;;3.63;;
47966;SDS011;33733;52.456;13.620;2023-07-20T03:42:41;5.35;;;2.58;;
47966;SDS011;33733;52.456;13.620;2023-07-20T03:45:07;5.78;;;2.90;;
47966;SDS011;33733;52.456;13.620;2023-07-20T03:47:34;9.18;;;3.05;;
47966;SDS011;33733;52.456;13.620;2023-07-20T03:50:01;6.05;;;3.00;;
47966;SDS011;33733;52.456;13.620;2023-07-20T03:52:28;6.28;;;2.63;;
47966;SDS011;33733;52.456;13.620;2023-07-20T03:54:54;7.57;;;3.38;;
47966;SDS011;33733;52.456;13.620;2023-07-20T03:57:21;4.72;;;2.75;;
47966;SDS011;33733;52.456;13.620;2023-07-20T03:59:48;5.03;;;1.75;;
47966;SDS011;33733;52.456;13.620;2023-07-20T04:02:14;6.93;;;3.53;;
47966;SDS011;33733;52.456;13.620;2023-07-20T04:04:41;5.82;;;2.67;;
47966;SDS011;33733;52.456;13.620;2023-07-20T04:07:08;5.60;;;2.03;;
47966;SDS011;33733;52.456;13.620;2023-07-20T04:09:35;7.00;;;2.53;;
47966;SDS011;33733;52.456;13.620;2023-07-20T04:12:01;6.45;;;3.45;;
47966;SDS011;33733;52.456;13.620;2023-07-20T04:14:28;5.90;;;3.22;;
47966;SDS011;33733;52.456;13.620;2023-07-20T04:16:55;6.85;;;3.80;;
47966;SDS011;33733;52.456;13.620;2023-07-20T04:19:22;5.82;;;3.15;;
47966;SDS011;33733;52.456;13.620;2023-07-20T04:21:48;4.95;;;2.75;;
47966;SDS011;33733;52.456;13.620;2023-07-20T04:24:15;5.70;;;2.92;;
47966;SDS011;33733;52.456;13.620;2023-07-20T04:26:41;6.30;;;2.45;;
47966;SDS011;33733;52.456;13.620;2023-07-20T04:29:09;5.60;;;2.95;;
47966;SDS011;33733;52.456;13.620;2023-07-20T04:31:39;6.68;;;3.33;;
47966;SDS011;33733;52.456;13.620;2023-07-20T04:34:05;5.35;;;2.13;;
47966;SDS011;33733;52.456;13.620;2023-07-20T04:36:34;7.68;;;3.63;;
47966;SDS011;33733;52.456;13.620;2023-07-20T04:39:01;8.88;;;3.20;;
47966;SDS011;33733;52.456;13.620;2023-07-20T04:41:36;6.10;;;3.85;;
47966;SDS011;33733;52.456;13.620;2023-07-20T04:44:03;6.18;;;2.60;;
47966;SDS011;33733;52.456;13.620;2023-07-20T04:46:30;6.18;;;3.42;;
47966;SDS011;33733;52.456;13.620;2023-07-20T04:49:00;6.75;;;3.65;;
47966;SDS011;33733;52.456;13.620;2023-07-20T04:51:30;5.45;;;2.95;;
47966;SDS011;33733;52.456;13.620;2023-07-20T04:53:57;5.90;;;3.53;;
47966;SDS011;33733;52.456;13.620;2023-07-20T04:56:27;6.25;;;2.30;;
47966;SDS011;33733;52.456;13.620;2023-07-20T04:58:55;5.95;;;3.20;;
47966;SDS011;33733;52.456;13.620;2023-07-20T05:01:23;4.15;;;1.63;;
47966;SDS011;33733;52.456;13.620;2023-07-20T05:03:50;5.18;;;3.03;;
47966;SDS011;33733;52.456;13.620;2023-07-20T05:06:17;5.65;;;2.88;;
47966;SDS011;33733;52.456;13.620;2023-07-20T05:08:44;6.78;;;3.45;;
47966;SDS011;33733;52.456;13.620;2023-07-20T05:11:11;5.20;;;1.95;;
47966;SDS011;33733;52.456;13.620;2023-07-20T05:13:38;7.38;;;4.63;;
47966;SDS011;33733;52.456;13.620;2023-07-20T05:16:05;6.32;;;3.28;;
47966;SDS011;33733;52.456;13.620;2023-07-20T05:18:32;4.90;;;2.58;;
47966;SDS011;33733;52.456;13.620;2023-07-20T05:20:59;8.88;;;2.25;;
47966;SDS011;33733;52.456;13.620;2023-07-20T05:23:26;6.97;;;4.20;;
47966;SDS011;33733;52.456;13.620;2023-07-20T05:25:56;5.82;;;2.13;;
47966;SDS011;33733;52.456;13.620;2023-07-20T05:28:24;6.05;;;3.13;;
47966;SDS011;33733;52.456;13.620;2023-07-20T05:30:51;6.22;;;3.28;;
47966;SDS011;33733;52.456;13.620;2023-07-20T05:33:21;7.63;;;3.95;;
47966;SDS011;33733;52.456;13.620;2023-07-20T05:35:48;5.15;;;2.35;;
47966;SDS011;33733;52.456;13.620;2023-07-20T05:38:15;5.43;;;3.22;;
47966;SDS011;33733;52.456;13.620;2023-07-20T05:40:41;4.70;;;1.55;;
47966;SDS011;33733;52.456;13.620;2023-07-20T05:43:11;6.90;;;3.70;;
47966;SDS011;33733;52.456;13.620;2023-07-20T05:45:41;5.03;;;2.22;;
47966;SDS011;33733;52.456;13.620;2023-07-20T05:48:09;6.03;;;1.63;;
47966;SDS011;33733;52.456;13.620;2023-07-20T05:50:42;5.85;;;3.67;;
47966;SDS011;33733;52.456;13.620;2023-07-20T05:53:12;6.88;;;1.83;;
47966;SDS011;33733;52.456;13.620;2023-07-20T05:55:38;4.82;;;1.85;;
47966;SDS011;33733;52.456;13.620;2023-07-20T05:58:06;5.32;;;3.55;;
47966;SDS011;33733;52.456;13.620;2023-07-20T06:00:32;5.20;;;1.27;;
47966;SDS011;33733;52.456;13.620;2023-07-20T06:02:59;6.05;;;3.47;;
47966;SDS011;33733;52.456;13.620;2023-07-20T06:05:26;5.30;;;2.28;;
47966;SDS011;33733;52.456;13.620;2023-07-20T06:07:55;5.35;;;2.63;;
47966;SDS011;33733;52.456;13.620;2023-07-20T06:10:23;4.57;;;2.33;;
47966;SDS011;33733;52.456;13.620;2023-07-20T06:12:50;3.72;;;1.60;;
47966;SDS011;33733;52.456;13.620;2023-07-20T06:15:27;3.50;;;1.20;;
47966;SDS011;33733;52.456;13.620;2023-07-20T06:18:01;5.25;;;2.85;;
47966;SDS011;33733;52.456;13.620;2023-07-20T06:20:30;5.97;;;1.08;;
47966;SDS011;33733;52.456;13.620;2023-07-20T06:22:56;4.28;;;1.83;;
47966;SDS011;33733;52.456;13.620;2023-07-20T06:25:23;4.60;;;1.95;;
47966;SDS011;33733;52.456;13.620;2023-07-20T06:27:50;4.13;;;1.02;;
47966;SDS011;33733;52.456;13.620;2023-07-20T06:30:20;4.97;;;2.58;;
47966;SDS011;33733;52.456;13.620;2023-07-20T06:32:47;5.18;;;3.00;;
47966;SDS011;33733;52.456;13.620;2023-07-20T06:35:14;4.43;;;1.38;;
47966;SDS011;33733;52.456;13.620;2023-07-20T06:37:42;4.57;;;2.22;;
47966;SDS011;33733;52.456;13.620;2023-07-20T06:40:09;4.00;;;0.90;;
47966;SDS011;33733;52.456;13.620;2023-07-20T06:42:38;3.88;;;1.50;;
47966;SDS011;33733;52.456;13.620;2023-07-20T06:45:08;3.25;;;1.65;;
47966;SDS011;33733;52.456;13.620;2023-07-20T06:47:37;3.78;;;1.80;;
47966;SDS011;33733;52.456;13.620;2023-07-20T06:50:05;2.78;;;0.73;;
47966;SDS011;33733;52.456;13.620;2023-07-20T06:52:33;3.63;;;1.90;;
47966;SDS011;33733;52.456;13.620;2023-07-20T06:54:59;4.18;;;2.10;;
47966;SDS011;33733;52.456;13.620;2023-07-20T06:57:31;4.55;;;2.20;;
47966;SDS011;33733;52.456;13.620;2023-07-20T06:59:57;3.80;;;1.05;;
47966;SDS011;33733;52.456;13.620;2023-07-20T07:02:24;3.65;;;1.13;;
47966;SDS011;33733;52.456;13.620;2023-07-20T07:04:51;3.90;;;1.77;;
47966;SDS011;33733;52.456;13.620;2023-07-20T07:07:26;3.90;;;1.85;;
47966;SDS011;33733;52.456;13.620;2023-07-20T07:09:53;3.53;;;0.95;;
47966;SDS011;33733;52.456;13.620;2023-07-20T07:12:20;2.25;;;0.68;;
47966;SDS011;33733;52.456;13.620;2023-07-20T07:14:46;4.22;;;1.98;;
47966;SDS011;33733;52.456;13.620;2023-07-20T07:17:13;4.13;;;2.25;;
47966;SDS011;33733;52.456;13.620;2023-07-20T07:19:45;3.95;;;2.15;;
47966;SDS011;33733;52.456;13.620;2023-07-20T07:22:14;2.85;;;1.20;;
47966;SDS011;33733;52.456;13.620;2023-07-20T07:24:41;4.55;;;1.63;;
47966;SDS011;33733;52.456;13.620;2023-07-20T07:27:08;4.15;;;2.05;;
47966;SDS011;33733;52.456;13.620;2023-07-20T07:29:35;3.78;;;1.67;;
47966;SDS011;33733;52.456;13.620;2023-07-20T07:32:02;4.28;;;2.13;;
47966;SDS011;33733;52.456;13.620;2023-07-20T07:34:29;2.17;;;0.57;;
47966;SDS011;33733;52.456;13.620;2023-07-20T07:36:55;3.80;;;1.90;;
47966;SDS011;33733;52.456;13.620;2023-07-20T07:39:22;3.58;;;1.80;;
47966;SDS011;33733;52.456;13.620;2023-07-20T07:41:53;2.75;;;1.25;;
47966;SDS011;33733;52.456;13.620;2023-07-20T07:44:20;2.97;;;1.15;;
47966;SDS011;33733;52.456;13.620;2023-07-20T07:46:47;2.25;;;0.68;;
47966;SDS011;33733;52.456;13.620;2023-07-20T07:49:15;2.90;;;1.45;;
47966;SDS011;33733;52.456;13.620;2023-07-20T07:51:42;2.72;;;1.20;;
47966;SDS011;33733;52.456;13.620;2023-07-20T07:54:09;3.28;;;1.08;;
47966;SDS011;33733;52.456;13.620;2023-07-20T07:56:36;4.53;;;1.38;;
47966;SDS011;33733;52.456;13.620;2023-07-20T07:59:02;3.35;;;1.63;;
47966;SDS011;33733;52.456;13.620;2023-07-20T08:01:29;1.88;;;0.60;;
47966;SDS011;33733;52.456;13.620;2023-07-20T08:03:56;2.90;;;1.27;;
47966;SDS011;33733;52.456;13.620;2023-07-20T08:06:23;2.70;;;1.17;;
47966;SDS011;33733;52.456;13.620;2023-07-20T08:08:51;3.47;;;1.30;;
47966;SDS011;33733;52.456;13.620;2023-07-20T08:11:17;2.60;;;1.30;;
47966;SDS011;33733;52.456;13.620;2023-07-20T08:13:44;2.47;;;1.08;;
47966;SDS011;33733;52.456;13.620;2023-07-20T08:16:11;1.55;;;0.45;;
47966;SDS011;33733;52.456;13.620;2023-07-20T08:18:37;3.20;;;1.10;;
47966;SDS011;33733;52.456;13.620;2023-07-20T08:21:05;1.20;;;0.30;;
47966;SDS011;33733;52.456;13.620;2023-07-20T08:23:31;2.22;;;0.52;;
47966;SDS011;33733;52.456;13.620;2023-07-20T08:25:58;2.47;;;0.77;;
47966;SDS011;33733;52.456;13.620;2023-07-20T08:28:24;1.35;;;0.32;;
47966;SDS011;33733;52.456;13.620;2023-07-20T08:30:53;2.70;;;1.17;;
47966;SDS011;33733;52.456;13.620;2023-07-20T08:33:19;2.80;;;1.67;;
47966;SDS011;33733;52.456;13.620;2023-07-20T08:35:46;5.97;;;1.25;;
47966;SDS011;33733;52.456;13.620;2023-07-20T08:38:13;1.67;;;0.50;;
47966;SDS011;33733;52.456;13.620;2023-07-20T08:40:40;1.85;;;0.43;;
47966;SDS011;33733;52.456;13.620;2023-07-20T08:43:08;1.50;;;0.47;;
47966;SDS011;33733;52.456;13.620;2023-07-20T08:45:38;3.20;;;1.83;;
47966;SDS011;33733;52.456;13.620;2023-07-20T08:48:05;3.10;;;1.17;;
47966;SDS011;33733;52.456;13.620;2023-07-20T08:50:33;2.65;;;1.23;;
47966;SDS011;33733;52.456;13.620;2023-07-20T08:53:01;17.30;;;9.13;;
47966;SDS011;33733;52.456;13.620;2023-07-20T08:55:28;22.42;;;15.43;;
47966;SDS011;33733;52.456;13.620;2023-07-20T08:57:56;1.35;;;0.52;;
47966;SDS011;33733;52.456;13.620;2023-07-20T09:00:25;2.60;;;1.05;;
47966;SDS011;33733;52.456;13.620;2023-07-20T09:05:23;2.40;;;1.13;;
47966;SDS011;33733;52.456;13.620;2023-07-20T09:07:59;2.35;;;0.93;;
47966;SDS011;33733;52.456;13.620;2023-07-20T09:10:26;3.28;;;1.50;;
47966;SDS011;33733;52.456;13.620;2023-07-20T09:12:52;2.65;;;0.77;;
47966;SDS011;33733;52.456;13.620;2023-07-20T09:15:19;3.15;;;1.42;;
47966;SDS011;33733;52.456;13.620;2023-07-20T09:17:46;3.08;;;0.60;;
47966;SDS011;33733;52.456;13.620;2023-07-20T09:20:15;2.45;;;1.17;;
47966;SDS011;33733;52.456;13.620;2023-07-20T09:22:46;2.70;;;1.27;;
47966;SDS011;33733;52.456;13.620;2023-07-20T09:25:14;4.38;;;1.23;;
47966;SDS011;33733;52.456;13.620;2023-07-20T09:27:42;2.42;;;1.35;;
47966;SDS011;33733;52.456;13.620;2023-07-20T09:30:10;2.13;;;0.38;;
47966;SDS011;33733;52.456;13.620;2023-07-20T09:32:45;1.08;;;0.40;;
47966;SDS011;33733;52.456;13.620;2023-07-20T09:35:22;1.42;;;0.45;;
47966;SDS011;33733;52.456;13.620;2023-07-20T09:40:27;1.40;;;0.47;;
47966;SDS011;33733;52.456;13.620;2023-07-20T09:42:58;3.33;;;0.65;;
47966;SDS011;33733;52.456;13.620;2023-07-20T09:45:33;1.52;;;0.35;;
47966;SDS011;33733;52.456;13.620;2023-07-20T09:48:08;2.40;;;1.05;;
47966;SDS011;33733;52.456;13.620;2023-07-20T09:50:42;2.33;;;1.00;;
47966;SDS011;33733;52.456;13.620;2023-07-20T09:53:18;2.22;;;0.30;;
47966;SDS011;33733;52.456;13.620;2023-07-20T09:55:46;3.00;;;1.33;;
47966;SDS011;33733;52.456;13.620;2023-07-20T09:58:14;2.75;;;1.33;;
47966;SDS011;33733;52.456;13.620;2023-07-20T10:00:42;2.40;;;1.10;;
47966;SDS011;33733;52.456;13.620;2023-07-20T10:03:20;2.15;;;0.98;;
47966;SDS011;33733;52.456;13.620;2023-07-20T10:06:03;3.17;;;0.88;;
47966;SDS011;33733;52.456;13.620;2023-07-20T10:08:34;1.67;;;0.43;;
47966;SDS011;33733;52.456;13.620;2023-07-20T10:11:05;2.00;;;0.80;;
47966;SDS011;33733;52.456;13.620;2023-07-20T10:13:32;3.10;;;1.30;;
47966;SDS011;33733;52.456;13.620;2023-07-20T10:16:50;2.42;;;1.10;;
47966;SDS011;33733;52.456;13.620;2023-07-20T10:19:17;1.42;;;0.30;;
47966;SDS011;33733;52.456;13.620;2023-07-20T10:21:53;0.82;;;0.13;;
47966;SDS011;33733;52.456;13.620;2023-07-20T10:24:30;2.40;;;0.60;;
47966;SDS011;33733;52.456;13.620;2023-07-20T10:26:57;2.05;;;0.95;;
47966;SDS011;33733;52.456;13.620;2023-07-20T10:29:24;1.40;;;0.30;;
47966;SDS011;33733;52.456;13.620;2023-07-20T10:31:55;2.35;;;1.10;;
47966;SDS011;33733;52.456;13.620;2023-07-20T10:34:22;0.98;;;0.38;;
47966;SDS011;33733;52.456;13.620;2023-07-20T10:36:49;2.58;;;0.95;;
47966;SDS011;33733;52.456;13.620;2023-07-20T10:39:24;3.30;;;0.88;;
47966;SDS011;33733;52.456;13.620;2023-07-20T10:42:03;2.42;;;1.05;;
47966;SDS011;33733;52.456;13.620;2023-07-20T10:44:34;1.25;;;0.35;;
47966;SDS011;33733;52.456;13.620;2023-07-20T10:47:08;2.00;;;0.70;;
47966;SDS011;33733;52.456;13.620;2023-07-20T10:52:27;3.00;;;0.40;;
47966;SDS011;33733;52.456;13.620;2023-07-20T10:55:15;2.40;;;1.02;;
47966;SDS011;33733;52.456;13.620;2023-07-20T10:57:42;2.08;;;1.00;;
47966;SDS011;33733;52.456;13.620;2023-07-20T11:00:12;3.22;;;1.50;;
47966;SDS011;33733;52.456;13.620;2023-07-20T11:02:47;2.92;;;1.42;;
47966;SDS011;33733;52.456;13.620;2023-07-20T11:05:38;3.00;;;1.33;;
47966;SDS011;33733;52.456;13.620;2023-07-20T11:10:35;1.58;;;0.30;;
47966;SDS011;33733;52.456;13.620;2023-07-20T11:13:21;1.23;;;0.35;;
47966;SDS011;33733;52.456;13.620;2023-07-20T11:18:26;2.85;;;1.42;;
47966;SDS011;33733;52.456;13.620;2023-07-20T11:20:53;2.05;;;0.68;;
47966;SDS011;33733;52.456;13.620;2023-07-20T11:23:20;1.30;;;0.30;;
47966;SDS011;33733;52.456;13.620;2023-07-20T11:25:47;3.45;;;1.35;;
47966;SDS011;33733;52.456;13.620;2023-07-20T11:28:14;1.35;;;0.32;;
47966;SDS011;33733;52.456;13.620;2023-07-20T11:30:40;2.90;;;1.27;;
47966;SDS011;33733;52.456;13.620;2023-07-20T11:33:10;2.50;;;1.05;;
47966;SDS011;33733;52.456;13.620;2023-07-20T11:35:44;3.03;;;1.33;;
47966;SDS011;33733;52.456;13.620;2023-07-20T11:38:13;0.80;;;0.22;;
47966;SDS011;33733;52.456;13.620;2023-07-20T11:40:43;0.95;;;0.25;;
47966;SDS011;33733;52.456;13.620;2023-07-20T11:43:11;2.65;;;1.05;;
47966;SDS011;33733;52.456;13.620;2023-07-20T11:45:41;2.25;;;1.10;;
47966;SDS011;33733;52.456;13.620;2023-07-20T11:48:14;1.42;;;0.32;;
47966;SDS011;33733;52.456;13.620;2023-07-20T11:50:44;2.53;;;1.13;;
47966;SDS011;33733;52.456;13.620;2023-07-20T11:53:11;3.67;;;1.45;;
47966;SDS011;33733;52.456;13.620;2023-07-20T11:55:39;1.35;;;0.30;;
47966;SDS011;33733;52.456;13.620;2023-07-20T11:58:07;2.17;;;0.98;;
47966;SDS011;33733;52.456;13.620;2023-07-20T12:00:35;2.00;;;0.95;;
47966;SDS011;33733;52.456;13.620;2023-07-20T12:03:04;2.55;;;1.08;;
47966;SDS011;33733;52.456;13.620;2023-07-20T12:05:37;1.92;;;1.15;;
47966;SDS011;33733;52.456;13.620;2023-07-20T12:08:24;2.47;;;1.08;;
47966;SDS011;33733;52.456;13.620;2023-07-20T12:10:51;2.58;;;1.33;;
47966;SDS011;33733;52.456;13.620;2023-07-20T12:13:18;2.70;;;1.52;;
47966;SDS011;33733;52.456;13.620;2023-07-20T12:15:44;3.78;;;1.35;;
47966;SDS011;33733;52.456;13.620;2023-07-20T12:18:11;2.35;;;1.17;;
47966;SDS011;33733;52.456;13.620;2023-07-20T12:20:38;2.60;;;1.20;;
47966;SDS011;33733;52.456;13.620;2023-07-20T12:23:09;1.75;;;0.52;;
47966;SDS011;33733;52.456;13.620;2023-07-20T12:28:11;4.28;;;1.02;;
47966;SDS011;33733;52.456;13.620;2023-07-20T12:30:39;19.30;;;6.80;;
47966;SDS011;33733;52.456;13.620;2023-07-20T12:33:06;14.75;;;6.95;;
47966;SDS011;33733;52.456;13.620;2023-07-20T12:35:33;16.83;;;7.60;;
47966;SDS011;33733;52.456;13.620;2023-07-20T12:38:00;5.68;;;2.65;;
47966;SDS011;33733;52.456;13.620;2023-07-20T12:40:27;2.72;;;1.55;;
47966;SDS011;33733;52.456;13.620;2023-07-20T12:42:53;2.13;;;1.00;;
47966;SDS011;33733;52.456;13.620;2023-07-20T12:45:20;2.63;;;1.33;;
47966;SDS011;33733;52.456;13.620;2023-07-20T12:47:47;2.78;;;1.15;;
47966;SDS011;33733;52.456;13.620;2023-07-20T12:50:14;1.73;;;0.63;;
47966;SDS011;33733;52.456;13.620;2023-07-20T12:52:41;1.27;;;0.22;;
47966;SDS011;33733;52.456;13.620;2023-07-20T12:55:08;1.52;;;0.30;;
47966;SDS011;33733;52.456;13.620;2023-07-20T12:57:35;1.20;;;0.32;;
47966;SDS011;33733;52.456;13.620;2023-07-20T13:00:03;3.03;;;1.48;;
47966;SDS011;33733;52.456;13.620;2023-07-20T13:02:32;1.50;;;0.30;;
47966;SDS011;33733;52.456;13.620;2023-07-20T13:04:58;1.23;;;0.43;;
47966;SDS011;33733;52.456;13.620;2023-07-20T13:07:29;2.22;;;0.57;;
47966;SDS011;33733;52.456;13.620;2023-07-20T13:10:00;1.25;;;0.40;;
47966;SDS011;33733;52.456;13.620;2023-07-20T13:12:31;3.03;;;1.15;;
47966;SDS011;33733;52.456;13.620;2023-07-20T13:14:59;1.63;;;0.50;;
47966;SDS011;33733;52.456;13.620;2023-07-20T13:17:27;1.67;;;0.43;;
47966;SDS011;33733;52.456;13.620;2023-07-20T13:19:54;3.10;;;1.38;;
47966;SDS011;33733;52.456;13.620;2023-07-20T13:22:21;1.17;;;0.43;;
47966;SDS011;33733;52.456;13.620;2023-07-20T13:24:49;1.63;;;0.68;;
47966;SDS011;33733;52.456;13.620;2023-07-20T13:27:17;1.05;;;0.20;;
47966;SDS011;33733;52.456;13.620;2023-07-20T13:29:47;2.72;;;1.33;;
47966;SDS011;33733;52.456;13.620;2023-07-20T13:32:14;0.55;;;0.13;;
47966;SDS011;33733;52.456;13.620;2023-07-20T13:34:42;2.25;;;1.05;;
47966;SDS011;33733;52.456;13.620;2023-07-20T13:37:14;3.10;;;1.17;;
47966;SDS011;33733;52.456;13.620;2023-07-20T13:39:42;1.80;;;0.32;;
47966;SDS011;33733;52.456;13.620;2023-07-20T13:42:10;5.15;;;0.95;;
47966;SDS011;33733;52.456;13.620;2023-07-20T13:44:38;2.50;;;1.30;;
47966;SDS011;33733;52.456;13.620;2023-07-20T13:47:05;2.22;;;1.05;;
47966;SDS011;33733;52.456;13.620;2023-07-20T13:49:34;2.70;;;1.25;;
47966;SDS011;33733;52.456;13.620;2023-07-20T13:52:12;2.45;;;1.25;;
47966;SDS011;33733;52.456;13.620;2023-07-20T13:54:41;1.27;;;0.13;;
47966;SDS011;33733;52.456;13.620;2023-07-20T13:57:11;2.30;;;0.43;;
47966;SDS011;33733;52.456;13.620;2023-07-20T13:59:38;2.83;;;1.33;;
47966;SDS011;33733;52.456;13.620;2023-07-20T14:02:04;2.90;;;1.33;;
47966;SDS011;33733;52.456;13.620;2023-07-20T14:04:34;2.60;;;1.13;;
47966;SDS011;33733;52.456;13.620;2023-07-20T14:07:02;2.70;;;1.20;;
47966;SDS011;33733;52.456;13.620;2023-07-20T14:09:29;2.97;;;1.48;;
47966;SDS011;33733;52.456;13.620;2023-07-20T14:11:55;1.65;;;0.52;;
47966;SDS011;33733;52.456;13.620;2023-07-20T14:14:25;1.27;;;0.50;;
47966;SDS011;33733;52.456;13.620;2023-07-20T14:16:51;0.90;;;0.30;;
47966;SDS011;33733;52.456;13.620;2023-07-20T14:19:18;1.35;;;0.43;;
47966;SDS011;33733;52.456;13.620;2023-07-20T14:21:46;1.55;;;0.50;;
47966;SDS011;33733;52.456;13.620;2023-07-20T14:24:12;2.47;;;1.13;;
47966;SDS011;33733;52.456;13.620;2023-07-20T14:26:39;2.50;;;1.38;;
47966;SDS011;33733;52.456;13.620;2023-07-20T14:29:09;1.25;;;0.22;;
47966;SDS011;33733;52.456;13.620;2023-07-20T14:31:39;2.78;;;1.30;;
47966;SDS011;33733;52.456;13.620;2023-07-20T14:34:06;1.48;;;0.35;;
47966;SDS011;33733;52.456;13.620;2023-07-20T14:36:32;2.58;;;1.17;;
47966;SDS011;33733;52.456;13.620;2023-07-20T14:39:00;1.58;;;0.57;;
47966;SDS011;33733;52.456;13.620;2023-07-20T14:41:27;2.75;;;1.30;;
47966;SDS011;33733;52.456;13.620;2023-07-20T14:43:53;2.70;;;1.42;;
47966;SDS011;33733;52.456;13.620;2023-07-20T14:46:20;1.35;;;0.38;;
47966;SDS011;33733;52.456;13.620;2023-07-20T14:48:47;2.53;;;1.02;;
47966;SDS011;33733;52.456;13.620;2023-07-20T14:51:14;2.42;;;1.23;;
47966;SDS011;33733;52.456;13.620;2023-07-20T14:53:41;2.63;;;1.23;;
47966;SDS011;33733;52.456;13.620;2023-07-20T14:56:08;2.67;;;0.43;;
47966;SDS011;33733;52.456;13.620;2023-07-20T14:58:36;2.80;;;1.42;;
47966;SDS011;33733;52.456;13.620;2023-07-20T15:01:03;1.60;;;0.75;;
47966;SDS011;33733;52.456;13.620;2023-07-20T15:03:30;2.50;;;1.20;;
47966;SDS011;33733;52.456;13.620;2023-07-20T15:05:57;1.45;;;0.50;;
47966;SDS011;33733;52.456;13.620;2023-07-20T15:08:24;3.00;;;1.33;;
47966;SDS011;33733;52.456;13.620;2023-07-20T15:10:51;2.65;;;1.42;;